createdAt,value
2018-01-25T06:46:21.032Z,1008.75
2018-01-25T06:47:29.742Z,1008.83
2018-01-25T06:48:39.232Z,1008.94
2018-01-25T06:49:48.971Z,1008.94
2018-01-25T06:50:57.918Z,1008.87
2018-01-25T06:52:06.870Z,1008.84
2018-01-25T06:53:16.072Z,1008.88
2018-01-25T06:54:25.005Z,1008.9
2018-01-25T06:55:34.247Z,1008.91
2018-01-25T06:56:43.178Z,1008.93
2018-01-25T06:57:52.110Z,1008.9
2018-01-25T06:59:00.802Z,1008.87
2018-01-25T07:00:09.484Z,1008.93
2018-01-25T07:01:18.692Z,1008.93
2018-01-25T07:02:27.645Z,1008.92
2018-01-25T07:03:36.588Z,1008.95
2018-01-25T07:04:45.559Z,1008.96
2018-01-25T07:05:54.502Z,1008.95
2018-01-25T07:07:03.713Z,1008.9
2018-01-25T07:08:12.928Z,1008.89
2018-01-25T07:09:22.150Z,1008.88
2018-01-25T07:10:31.355Z,1009.07
2018-01-25T07:11:40.555Z,1008.95
2018-01-25T07:12:50.053Z,1008.91
2018-01-25T07:13:59.523Z,1008.93
2018-01-25T07:15:08.203Z,1008.87
2018-01-25T07:16:17.426Z,1008.89
2018-01-25T07:17:26.134Z,1008.95
2018-01-25T07:18:35.075Z,1008.9
2018-01-25T07:19:43.748Z,1008.94
2018-01-25T07:20:53.208Z,1008.96
2018-01-25T07:22:02.685Z,1008.99
2018-01-25T07:23:11.375Z,1009
2018-01-25T07:24:20.328Z,1008.98
2018-01-25T07:25:29.024Z,1009.07
2018-01-25T07:26:37.718Z,1009.05
2018-01-25T07:27:46.933Z,1009.05
2018-01-25T07:28:56.463Z,1008.98
2018-01-25T07:30:05.673Z,1009.02
2018-01-25T07:31:14.885Z,1009.08
2018-01-25T07:32:24.097Z,1009.05
2018-01-25T07:33:33.314Z,1009.04
2018-01-25T07:34:42.054Z,1009.03
2018-01-25T07:35:51.319Z,1009.03
2018-01-25T07:37:00.291Z,1009.03
2018-01-25T07:38:09.505Z,1009.07
2018-01-25T07:39:18.987Z,1009.01
2018-01-25T07:40:28.015Z,1009.01
2018-01-25T07:41:37.224Z,1008.96
2018-01-25T07:42:46.182Z,1008.99
2018-01-25T07:43:55.664Z,1009
2018-01-25T07:45:04.373Z,1008.99
2018-01-25T07:46:13.096Z,1009.01
2018-01-25T07:47:22.323Z,1009.01
2018-01-25T07:48:31.031Z,1009.06
2018-01-25T07:49:39.977Z,1009.05
2018-01-25T07:50:48.659Z,1009.09
2018-01-25T07:51:57.619Z,1009.1
2018-01-25T07:53:06.312Z,1009.04
2018-01-25T07:54:15.540Z,1009.09
2018-01-25T07:55:25.323Z,1009.08
2018-01-25T07:56:34.272Z,1009.11
2018-01-25T07:57:42.965Z,1009.17
2018-01-25T07:58:52.179Z,1009.14
2018-01-25T08:00:01.404Z,1009.11
2018-01-25T08:01:10.639Z,1009.07
2018-01-25T08:02:19.859Z,1009.07
2018-01-25T08:03:29.621Z,1009.09
2018-01-25T08:04:38.840Z,1009.05
2018-01-25T08:05:47.797Z,1009
2018-01-25T08:06:57.026Z,1008.93
2018-01-25T08:08:06.502Z,1008.97
2018-01-25T08:09:15.211Z,1008.94
2018-01-25T08:10:24.173Z,1008.97
2018-01-25T08:11:33.130Z,1009
2018-01-25T08:12:41.830Z,1009.11
2018-01-25T08:13:50.565Z,1009.2
2018-01-25T08:14:59.538Z,1009.27
2018-01-25T08:16:08.488Z,1009.37
2018-01-25T08:17:17.237Z,1009.4
2018-01-25T08:18:25.936Z,1009.35
2018-01-25T08:19:35.403Z,1009.34
2018-01-25T08:20:44.387Z,1009.34
2018-01-25T08:21:53.615Z,1009.34
2018-01-25T08:23:03.391Z,1009.37
2018-01-25T08:24:12.615Z,1009.37
2018-01-25T08:25:21.315Z,1009.34
2018-01-25T08:26:30.038Z,1009.33
2018-01-25T08:27:39.541Z,1009.36
2018-01-25T08:28:48.236Z,1009.36
2018-01-25T08:29:57.207Z,1009.37
2018-01-25T08:31:06.679Z,1009.35
2018-01-25T08:32:15.660Z,1009.36
2018-01-25T08:33:24.625Z,1009.36
2018-01-25T08:34:33.591Z,1009.33
2018-01-25T08:35:42.815Z,1009.32
2018-01-25T08:36:51.559Z,1009.33
2018-01-25T08:38:01.316Z,1009.29
2018-01-25T08:39:10.281Z,1009.3
2018-01-25T08:40:19.252Z,1009.28
2018-01-25T08:41:33.156Z,1009.2
2018-01-25T08:42:42.811Z,1009.21
2018-01-25T08:43:51.512Z,1009.19
2018-01-25T08:45:00.739Z,1009.18
2018-01-25T08:46:09.418Z,1009.22
2018-01-25T08:47:18.698Z,1009.26
2018-01-25T08:48:27.685Z,1009.23
2018-01-25T08:49:36.964Z,1009.17
2018-01-25T08:50:46.187Z,1009.14
2018-01-25T08:51:55.147Z,1009.11
2018-01-25T08:53:04.128Z,1009.12
2018-01-25T08:54:12.836Z,1009.15
2018-01-25T08:55:21.789Z,1009.15
2018-01-25T08:56:30.501Z,1009.17
2018-01-25T08:57:39.462Z,1009.18
2018-01-25T08:58:48.448Z,1009.15
2018-01-25T08:59:57.469Z,1009.15
2018-01-25T09:01:06.103Z,1009.16
2018-01-25T09:02:15.073Z,1009.14
2018-01-25T09:03:24.026Z,1009.13
2018-01-25T09:04:32.800Z,1009.16
2018-01-25T09:05:42.028Z,1009.18
2018-01-25T09:06:51.265Z,1009.2
2018-01-25T09:08:00.236Z,1009.24
2018-01-25T09:09:09.193Z,1009.27
2018-01-25T09:10:18.136Z,1009.25
2018-01-25T09:11:27.357Z,1009.28
2018-01-25T09:12:36.333Z,1009.27
2018-01-25T09:13:45.556Z,1009.24
2018-01-25T09:14:54.513Z,1009.28
2018-01-25T09:16:03.231Z,1009.27
2018-01-25T09:17:12.712Z,1009.31
2018-01-25T09:18:21.675Z,1009.27
2018-01-25T09:19:30.891Z,1009.29
2018-01-25T09:20:39.852Z,1009.3
2018-01-25T09:21:48.559Z,1009.34
2018-01-25T09:22:57.243Z,1009.33
2018-01-25T09:24:05.922Z,1009.32
2018-01-25T09:25:15.161Z,1009.37
2018-01-25T09:26:24.141Z,1009.33
2018-01-25T09:27:32.851Z,1009.34
2018-01-25T09:28:41.585Z,1009.35
2018-01-25T09:29:51.074Z,1009.34
2018-01-25T09:31:00.074Z,1009.34
2018-01-25T09:32:09.569Z,1009.34
2018-01-25T09:33:18.783Z,1009.39
2018-01-25T09:34:27.761Z,1009.39
2018-01-25T09:35:36.756Z,1009.38
2018-01-25T09:36:45.718Z,1009.37
2018-01-25T09:37:54.926Z,1009.41
2018-01-25T09:39:04.201Z,1009.38
2018-01-25T09:40:13.175Z,1009.38
2018-01-25T09:41:22.170Z,1009.4
2018-01-25T09:42:31.129Z,1009.41
2018-01-25T09:43:40.166Z,1009.37
2018-01-25T09:44:48.873Z,1009.44
2018-01-25T09:45:57.840Z,1009.41
2018-01-25T09:47:07.049Z,1009.42
2018-01-25T09:48:16.299Z,1009.47
2018-01-25T09:49:25.518Z,1009.47
2018-01-25T09:50:34.736Z,1009.51
2018-01-25T09:51:43.972Z,1009.48
2018-01-25T09:52:52.936Z,1009.52
2018-01-25T09:54:02.164Z,1009.48
2018-01-25T09:55:11.136Z,1009.5
2018-01-25T09:56:20.090Z,1009.52
2018-01-25T09:57:28.781Z,1009.52
2018-01-25T09:58:37.757Z,1009.52
2018-01-25T09:59:46.966Z,1009.47
2018-01-25T10:00:55.943Z,1009.5
2018-01-25T10:02:04.886Z,1009.47
2018-01-25T10:03:14.119Z,1009.51
2018-01-25T10:04:23.354Z,1009.5
2018-01-25T10:05:32.049Z,1009.49
2018-01-25T10:06:41.527Z,1009.47
2018-01-25T10:07:50.751Z,1009.49
2018-01-25T10:08:59.439Z,1009.43
2018-01-25T10:10:08.125Z,1009.48
2018-01-25T10:11:17.067Z,1009.45
2018-01-25T10:12:26.280Z,1009.45
2018-01-25T10:13:35.954Z,1009.48
2018-01-25T10:14:45.175Z,1009.49
2018-01-25T10:15:54.444Z,1009.52
2018-01-25T10:17:03.399Z,1009.54
2018-01-25T10:18:12.379Z,1009.51
2018-01-25T10:19:21.874Z,1009.5
2018-01-25T10:20:30.547Z,1009.49
2018-01-25T10:21:39.515Z,1009.49
2018-01-25T10:22:48.465Z,1009.49
2018-01-25T10:23:57.766Z,1009.5
2018-01-25T10:25:06.969Z,1009.52
2018-01-25T10:26:15.697Z,1009.45
2018-01-25T10:27:24.650Z,1009.44
2018-01-25T10:28:33.605Z,1009.42
2018-01-25T10:29:42.309Z,1009.43
2018-01-25T10:30:51.261Z,1009.37
2018-01-25T10:32:00.239Z,1009.38
2018-01-25T10:33:09.750Z,1009.37
2018-01-25T10:34:18.694Z,1009.34
2018-01-25T10:35:27.653Z,1009.32
2018-01-25T10:36:36.618Z,1009.3
2018-01-25T10:37:45.587Z,1009.3
2018-01-25T10:38:55.069Z,1009.31
2018-01-25T10:40:04.045Z,1009.27
2018-01-25T10:41:12.767Z,1009.24
2018-01-25T10:42:21.980Z,1009.25
2018-01-25T10:43:30.681Z,1009.19
2018-01-25T10:44:39.383Z,1009.21
2018-01-25T10:45:48.867Z,1009.2
2018-01-25T10:46:57.826Z,1009.24
2018-01-25T10:48:06.801Z,1009.24
2018-01-25T10:49:15.780Z,1009.19
2018-01-25T10:50:25.014Z,1009.22
2018-01-25T10:51:33.972Z,1009.19
2018-01-25T10:52:43.216Z,1009.15
2018-01-25T10:53:52.440Z,1009.17
2018-01-25T10:55:01.395Z,1009.11
2018-01-25T10:56:10.376Z,1009.14
2018-01-25T10:57:19.070Z,1009.09
2018-01-25T10:58:27.846Z,1009.11
2018-01-25T10:59:36.806Z,1009.1
2018-01-25T11:00:46.103Z,1009.09
2018-01-25T11:01:55.323Z,1009.07
2018-01-25T11:03:04.025Z,1009.03
2018-01-25T11:04:13.253Z,1009.04
2018-01-25T11:05:22.462Z,1009.03
2018-01-25T11:06:31.938Z,1009.04
2018-01-25T11:07:41.160Z,1008.99
2018-01-25T11:08:50.397Z,1008.95
2018-01-25T11:09:59.124Z,1008.92
2018-01-25T11:11:07.828Z,1008.89
2018-01-25T11:12:16.515Z,1008.87
2018-01-25T11:13:25.736Z,1008.89
2018-01-25T11:14:35.001Z,1008.9
2018-01-25T11:15:43.717Z,1008.83
2018-01-25T11:16:52.933Z,1008.82
2018-01-25T11:18:01.886Z,1008.77
2018-01-25T11:19:10.854Z,1008.77
2018-01-25T11:20:20.083Z,1008.77
2018-01-25T11:21:29.048Z,1008.76
2018-01-25T11:22:38.358Z,1008.74
2018-01-25T11:23:47.304Z,1008.73
2018-01-25T11:24:55.990Z,1008.74
2018-01-25T11:26:04.696Z,1008.75
2018-01-25T11:27:13.397Z,1008.75
2018-01-25T11:28:22.608Z,1008.72
2018-01-25T11:29:31.830Z,1008.7
2018-01-25T11:30:40.520Z,1008.67
2018-01-25T11:31:49.475Z,1008.67
2018-01-25T11:32:58.169Z,1008.65
2018-01-25T11:34:07.385Z,1008.59
2018-01-25T11:35:16.349Z,1008.6
2018-01-25T11:36:25.302Z,1008.51
2018-01-25T11:37:34.246Z,1008.51
2018-01-25T11:38:43.470Z,1008.51
2018-01-25T11:39:52.666Z,1008.45
2018-01-25T11:41:01.605Z,1008.42
2018-01-25T11:42:10.826Z,1008.41
2018-01-25T11:43:20.077Z,1008.4
2018-01-25T11:44:29.296Z,1008.36
2018-01-25T11:45:38.500Z,1008.35
2018-01-25T11:46:47.722Z,1008.32
2018-01-25T11:47:57.206Z,1008.34
2018-01-25T11:49:06.937Z,1008.31
2018-01-25T11:50:16.153Z,1008.31
2018-01-25T11:51:25.368Z,1008.32
2018-01-25T11:52:34.324Z,1008.29
2018-01-25T11:53:43.534Z,1008.25
2018-01-25T11:54:52.738Z,1008.24
2018-01-25T11:56:01.423Z,1008.23
2018-01-25T11:57:10.641Z,1008.22
2018-01-25T11:58:19.330Z,1008.24
2018-01-25T11:59:28.285Z,1008.24
2018-01-25T12:00:37.245Z,1008.28
2018-01-25T12:01:46.719Z,1008.27
2018-01-25T12:02:55.943Z,1008.33
2018-01-25T12:04:05.333Z,1008.31
2018-01-25T12:05:14.548Z,1008.32
2018-01-25T12:06:23.240Z,1008.36
2018-01-25T12:07:32.254Z,1008.33
2018-01-25T12:08:41.471Z,1008.32
2018-01-25T12:09:50.199Z,1008.33
2018-01-25T12:10:59.679Z,1008.3
2018-01-25T12:12:08.918Z,1008.29
2018-01-25T12:13:18.403Z,1008.27
2018-01-25T12:14:27.399Z,1008.28
2018-01-25T12:15:36.128Z,1008.26
2018-01-25T12:16:45.073Z,1008.28
2018-01-25T12:17:54.039Z,1008.21
2018-01-25T12:19:02.742Z,1008.18
2018-01-25T12:20:11.972Z,1008.19
2018-01-25T12:21:21.196Z,1008.16
2018-01-25T12:22:30.173Z,1008.23
2018-01-25T12:23:39.655Z,1008.2
2018-01-25T12:24:49.149Z,1008.25
2018-01-25T12:25:57.821Z,1008.2
2018-01-25T12:27:06.778Z,1008.18
2018-01-25T12:28:15.987Z,1008.21
2018-01-25T12:29:24.946Z,1008.23
2018-01-25T12:30:33.897Z,1008.23
2018-01-25T12:31:42.845Z,1008.27
2018-01-25T12:32:52.069Z,1008.25
2018-01-25T12:34:01.543Z,1008.25
2018-01-25T12:35:11.017Z,1008.24
2018-01-25T12:36:20.519Z,1008.23
2018-01-25T12:37:29.717Z,1008.19
2018-01-25T12:38:38.932Z,1008.16
2018-01-25T12:39:48.165Z,1008.2
2018-01-25T12:40:57.162Z,1008.15
2018-01-25T12:42:06.236Z,1008.14
2018-01-25T12:43:16.231Z,1008.12
2018-01-25T12:44:25.210Z,1008.1
2018-01-25T12:45:34.187Z,1008.11
2018-01-25T12:46:43.146Z,1008.1
2018-01-25T12:47:51.863Z,1008.03
2018-01-25T12:49:01.077Z,1008
2018-01-25T12:50:09.784Z,1007.98
2018-01-25T12:51:18.493Z,1007.94
2018-01-25T12:52:27.461Z,1007.85
2018-01-25T12:53:36.460Z,1007.9
2018-01-25T12:54:45.421Z,1007.86
2018-01-25T12:55:54.383Z,1007.84
2018-01-25T12:57:03.354Z,1007.85
2018-01-25T12:58:12.593Z,1007.83
2018-01-25T12:59:21.817Z,1007.86
2018-01-25T13:00:30.776Z,1007.85
2018-01-25T13:01:39.729Z,1007.8
2018-01-25T13:02:48.693Z,1007.82
2018-01-25T13:03:57.667Z,1007.81
2018-01-25T13:05:06.640Z,1007.77
2018-01-25T13:06:15.852Z,1007.71
2018-01-25T13:07:25.090Z,1007.68
2018-01-25T13:08:34.648Z,1007.67
2018-01-25T13:09:43.325Z,1007.68
2018-01-25T13:10:52.015Z,1007.63
2018-01-25T13:12:01.234Z,1007.6
2018-01-25T13:13:10.457Z,1007.59
2018-01-25T13:14:20.195Z,1007.57
2018-01-25T13:15:29.145Z,1007.55
2018-01-25T13:16:38.361Z,1007.53
2018-01-25T13:17:47.576Z,1007.55
2018-01-25T13:18:56.293Z,1007.53
2018-01-25T13:20:05.555Z,1007.51
2018-01-25T13:21:14.866Z,1007.48
2018-01-25T13:22:23.877Z,1007.5
2018-01-25T13:23:33.340Z,1007.49
2018-01-25T13:24:42.053Z,1007.49
2018-01-25T13:25:51.259Z,1007.47
2018-01-25T13:27:00.213Z,1007.45
2018-01-25T13:28:09.431Z,1007.43
2018-01-25T13:29:18.922Z,1007.42
2018-01-25T13:30:28.138Z,1007.4
2018-01-25T13:31:36.853Z,1007.39
2018-01-25T13:32:45.808Z,1007.41
2018-01-25T13:33:54.770Z,1007.43
2018-01-25T13:35:04.516Z,1007.44
2018-01-25T13:36:13.744Z,1007.45
2018-01-25T13:37:22.709Z,1007.44
2018-01-25T13:38:31.662Z,1007.46
2018-01-25T13:39:40.635Z,1007.44
2018-01-25T13:40:50.124Z,1007.42
2018-01-25T13:41:59.079Z,1007.45
2018-01-25T13:43:08.549Z,1007.42
2018-01-25T13:44:18.025Z,1007.48
2018-01-25T13:45:26.724Z,1007.46
2018-01-25T13:46:36.245Z,1007.43
2018-01-25T13:47:45.216Z,1007.44
2018-01-25T13:48:54.425Z,1007.42
2018-01-25T13:50:03.631Z,1007.43
2018-01-25T13:51:12.351Z,1007.44
2018-01-25T13:52:21.592Z,1007.47
2018-01-25T13:53:30.823Z,1007.46
2018-01-25T13:54:40.060Z,1007.42
2018-01-25T13:55:49.036Z,1007.41
2018-01-25T13:56:57.999Z,1007.46
2018-01-25T13:58:07.213Z,1007.49
2018-01-25T13:59:16.162Z,1007.56
2018-01-25T14:00:25.116Z,1007.55
2018-01-25T14:01:34.591Z,1007.54
2018-01-25T14:02:43.541Z,1007.53
2018-01-25T14:03:52.786Z,1007.52
2018-01-25T14:05:01.775Z,1007.52
2018-01-25T14:06:11.262Z,1007.55
2018-01-25T14:07:19.958Z,1007.52
2018-01-25T14:08:28.916Z,1007.44
2018-01-25T14:09:37.902Z,1007.48
2018-01-25T14:10:47.385Z,1007.48
2018-01-25T14:11:56.605Z,1007.51
2018-01-25T14:13:06.078Z,1007.56
2018-01-25T14:14:14.787Z,1007.59
2018-01-25T14:15:23.475Z,1007.59
2018-01-25T14:16:32.697Z,1007.62
2018-01-25T14:17:41.906Z,1007.64
2018-01-25T14:18:50.858Z,1007.68
2018-01-25T14:19:59.812Z,1007.61
2018-01-25T14:21:08.772Z,1007.58
2018-01-25T14:22:18.257Z,1007.63
2018-01-25T14:23:27.723Z,1007.61
2018-01-25T14:24:36.425Z,1007.63
2018-01-25T14:25:45.365Z,1007.65
2018-01-25T14:26:54.603Z,1007.65
2018-01-25T14:28:03.573Z,1007.63
2018-01-25T14:29:12.269Z,1007.63
2018-01-25T14:30:21.267Z,1007.62
2018-01-25T14:31:30.230Z,1007.63
2018-01-25T14:32:39.456Z,1007.61
2018-01-25T14:33:48.947Z,1007.56
2018-01-25T14:34:58.209Z,1007.6
2018-01-25T14:36:07.680Z,1007.56
2018-01-25T14:37:16.380Z,1007.55
2018-01-25T14:38:25.855Z,1007.56
2018-01-25T14:39:35.348Z,1007.56
2018-01-25T14:40:44.582Z,1007.59
2018-01-25T14:41:53.263Z,1007.56
2018-01-25T14:43:02.216Z,1007.55
2018-01-25T14:44:11.421Z,1007.55
2018-01-25T14:45:20.376Z,1007.55
2018-01-25T14:46:29.076Z,1007.51
2018-01-25T14:47:38.017Z,1007.49
2018-01-25T14:48:47.248Z,1007.5
2018-01-25T14:49:55.943Z,1007.51
2018-01-25T14:51:04.922Z,1007.56
2018-01-25T14:52:13.901Z,1007.6
2018-01-25T14:53:22.847Z,1007.58
2018-01-25T14:54:31.545Z,1007.58
2018-01-25T14:55:40.508Z,1007.6
2018-01-25T14:56:49.510Z,1007.55
2018-01-25T14:57:58.713Z,1007.53
2018-01-25T14:59:07.680Z,1007.52
2018-01-25T15:00:16.687Z,1007.46
2018-01-25T15:01:25.388Z,1007.54
2018-01-25T15:02:34.351Z,1007.55
2018-01-25T15:03:43.310Z,1007.51
2018-01-25T15:04:52.544Z,1007.55
2018-01-25T15:06:01.783Z,1007.55
2018-01-25T15:07:10.496Z,1007.53
2018-01-25T15:08:19.196Z,1007.55
2018-01-25T15:09:27.897Z,1007.54
2018-01-25T15:10:36.853Z,1007.57
2018-01-25T15:11:45.790Z,1007.59
2018-01-25T15:12:54.771Z,1007.61
2018-01-25T15:14:03.976Z,1007.59
2018-01-25T15:15:13.199Z,1007.63
2018-01-25T15:16:21.912Z,1007.58
2018-01-25T15:17:31.134Z,1007.62
2018-01-25T15:18:40.612Z,1007.61
2018-01-25T15:19:49.599Z,1007.6
2018-01-25T15:20:58.812Z,1007.62
2018-01-25T15:22:07.775Z,1007.62
2018-01-25T15:23:17.062Z,1007.64
2018-01-25T15:24:26.526Z,1007.62
2018-01-25T15:25:35.223Z,1007.6
2018-01-25T15:26:44.174Z,1007.59
2018-01-25T15:27:53.149Z,1007.61
2018-01-25T15:29:02.110Z,1007.58
2018-01-25T15:30:11.077Z,1007.62
2018-01-25T15:31:20.086Z,1007.58
2018-01-25T15:32:29.040Z,1007.65
2018-01-25T15:33:37.986Z,1007.66
2018-01-25T15:34:46.686Z,1007.72
2018-01-25T15:35:55.988Z,1007.78
2018-01-25T15:37:05.974Z,1007.75
2018-01-25T15:38:14.673Z,1007.78
2018-01-25T15:39:23.641Z,1007.77
2018-01-25T15:40:33.390Z,1007.77
2018-01-25T15:41:42.618Z,1007.79
2018-01-25T15:42:51.580Z,1007.8
2018-01-25T15:44:00.549Z,1007.77
2018-01-25T15:45:09.499Z,1007.78
2018-01-25T15:46:18.180Z,1007.75
2018-01-25T15:47:27.195Z,1007.75
2018-01-25T15:48:36.417Z,1007.76
2018-01-25T15:49:46.174Z,1007.79
2018-01-25T15:50:55.138Z,1007.77
2018-01-25T15:52:03.848Z,1007.76
2018-01-25T15:53:12.565Z,1007.73
2018-01-25T15:54:21.782Z,1007.75
2018-01-25T15:55:30.496Z,1007.73
2018-01-25T15:56:39.185Z,1007.73
2018-01-25T15:57:48.950Z,1007.69
2018-01-25T15:58:57.887Z,1007.69
2018-01-25T16:00:06.636Z,1007.7
2018-01-25T16:01:15.345Z,1007.7
2018-01-25T16:02:24.562Z,1007.74
2018-01-25T16:03:33.261Z,1007.71
2018-01-25T16:04:41.948Z,1007.71
2018-01-25T16:05:51.163Z,1007.73
2018-01-25T16:06:59.891Z,1007.73
2018-01-25T16:08:08.922Z,1007.72
2018-01-25T16:09:17.936Z,1007.69
2018-01-25T16:10:27.361Z,1007.67
2018-01-25T16:11:37.006Z,1007.67
2018-01-25T16:12:45.819Z,1007.65
2018-01-25T16:13:54.912Z,1007.69
2018-01-25T16:15:03.930Z,1007.66
2018-01-25T16:16:12.909Z,1007.63
2018-01-25T16:17:21.983Z,1007.67
2018-01-25T16:18:30.998Z,1007.64
2018-01-25T16:19:40.259Z,1007.57
2018-01-25T16:20:49.781Z,1007.58
2018-01-25T16:21:59.084Z,1007.56
2018-01-25T16:23:08.321Z,1007.54
2018-01-25T16:24:17.348Z,1007.53
2018-01-25T16:25:26.369Z,1007.52
2018-01-25T16:26:35.141Z,1007.51
2018-01-25T16:27:43.849Z,1007.48
2018-01-25T16:28:53.082Z,1007.48
2018-01-25T16:30:01.838Z,1007.54
2018-01-25T16:31:10.855Z,1007.56
2018-01-25T16:32:19.812Z,1007.59
2018-01-25T16:33:28.765Z,1007.54
2018-01-25T16:34:37.744Z,1007.5
2018-01-25T16:35:46.718Z,1007.56
2018-01-25T16:36:55.415Z,1007.53
2018-01-25T16:38:04.948Z,1007.56
2018-01-25T16:39:14.201Z,1007.52
2018-01-25T16:40:22.899Z,1007.54
2018-01-25T16:41:32.128Z,1007.55
2018-01-25T16:42:41.104Z,1007.53
2018-01-25T16:43:49.812Z,1007.59
2018-01-25T16:44:59.336Z,1007.6
2018-01-25T16:46:08.026Z,1007.58
2018-01-25T16:47:16.980Z,1007.58
2018-01-25T16:48:25.752Z,1007.57
2018-01-25T16:49:35.276Z,1007.52
2018-01-25T16:50:44.489Z,1007.53
2018-01-25T16:51:53.736Z,1007.49
2018-01-25T16:53:03.228Z,1007.52
2018-01-25T16:54:12.226Z,1007.51
2018-01-25T16:55:21.207Z,1007.52
2018-01-25T16:56:30.196Z,1007.53
2018-01-25T16:57:39.468Z,1007.52
2018-01-25T16:58:48.975Z,1007.52
2018-01-25T16:59:58.202Z,1007.54
2018-01-25T17:01:07.206Z,1007.53
2018-01-25T17:02:16.216Z,1007.54
2018-01-25T17:03:24.919Z,1007.57
2018-01-25T17:04:33.701Z,1007.55
2018-01-25T17:05:42.952Z,1007.57
2018-01-25T17:06:51.634Z,1007.57
2018-01-25T17:08:00.660Z,1007.56
2018-01-25T17:09:09.635Z,1007.61
2018-01-25T17:10:18.683Z,1007.61
2018-01-25T17:11:27.699Z,1007.61
2018-01-25T17:12:36.712Z,1007.57
2018-01-25T17:13:46.208Z,1007.6
2018-01-25T17:14:55.163Z,1007.61
2018-01-25T17:16:05.161Z,1007.57
2018-01-25T17:17:13.889Z,1007.62
2018-01-25T17:18:22.686Z,1007.65
2018-01-25T17:19:31.975Z,1007.66
2018-01-25T17:20:41.459Z,1007.69
2018-01-25T17:21:50.914Z,1007.67
2018-01-25T17:23:00.178Z,1007.67
2018-01-25T17:24:09.184Z,1007.69
2018-01-25T17:25:18.912Z,1007.69
2018-01-25T17:26:27.885Z,1007.73
2018-01-25T17:27:36.857Z,1007.77
2018-01-25T17:28:45.658Z,1007.71
2018-01-25T17:29:54.624Z,1007.76
2018-01-25T17:31:04.077Z,1007.75
2018-01-25T17:32:13.282Z,1007.79
2018-01-25T17:33:22.236Z,1007.81
2018-01-25T17:34:30.919Z,1007.84
2018-01-25T17:35:39.612Z,1007.84
2018-01-25T17:36:48.839Z,1007.84
2018-01-25T17:37:58.323Z,1007.86
2018-01-25T17:39:07.272Z,1007.82
2018-01-25T17:40:16.225Z,1007.87
2018-01-25T17:41:25.426Z,1007.89
2018-01-25T17:42:34.101Z,1007.9
2018-01-25T17:43:43.043Z,1007.96
2018-01-25T17:44:52.017Z,1007.97
2018-01-25T17:46:01.221Z,1008.01
2018-01-25T17:47:09.928Z,1008.06
2018-01-25T17:48:19.226Z,1008.03
2018-01-25T17:49:28.696Z,1008.07
2018-01-25T17:50:37.672Z,1008.09
2018-01-25T17:51:46.359Z,1008.12
2018-01-25T17:52:55.033Z,1008.12
2018-01-25T17:54:04.333Z,1008.15
2018-01-25T17:55:13.291Z,1008.15
2018-01-25T17:56:22.751Z,1008.14
2018-01-25T17:57:31.719Z,1008.16
2018-01-25T17:58:40.784Z,1008.15
2018-01-25T17:59:49.852Z,1008.14
2018-01-25T18:00:58.788Z,1008.16
2018-01-25T18:02:07.732Z,1008.12
2018-01-25T18:03:16.996Z,1008.14
2018-01-25T18:04:26.202Z,1008.17
2018-01-25T18:05:35.682Z,1008.17
2018-01-25T18:06:44.673Z,1008.16
2018-01-25T18:07:53.881Z,1008.14
2018-01-25T18:09:03.081Z,1008.15
2018-01-25T18:10:12.555Z,1008.19
2018-01-25T18:11:21.258Z,1008.24
2018-01-25T18:12:30.753Z,1008.22
2018-01-25T18:13:39.705Z,1008.23
2018-01-25T18:14:48.918Z,1008.27
2018-01-25T18:15:57.590Z,1008.27
2018-01-25T18:17:06.540Z,1008.29
2018-01-25T18:18:15.229Z,1008.27
2018-01-25T18:19:24.457Z,1008.31
2018-01-25T18:20:34.210Z,1008.26
2018-01-25T18:21:43.434Z,1008.26
2018-01-25T18:22:52.641Z,1008.27
2018-01-25T18:24:01.852Z,1008.28
2018-01-25T18:25:10.813Z,1008.27
2018-01-25T18:26:20.038Z,1008.27
2018-01-25T18:27:28.993Z,1008.3
2018-01-25T18:28:37.941Z,1008.29
2018-01-25T18:29:47.172Z,1008.34
2018-01-25T18:30:56.384Z,1008.35
2018-01-25T18:32:06.111Z,1008.35
2018-01-25T18:33:15.330Z,1008.35
2018-01-25T18:34:24.624Z,1008.34
2018-01-25T18:35:34.106Z,1008.37
2018-01-25T18:36:43.061Z,1008.33
2018-01-25T18:37:52.286Z,1008.36
2018-01-25T18:39:01.256Z,1008.35
2018-01-25T18:40:10.771Z,1008.34
2018-01-25T18:41:19.974Z,1008.4
2018-01-25T18:42:28.679Z,1008.41
2018-01-25T18:43:37.898Z,1008.41
2018-01-25T18:44:47.386Z,1008.43
2018-01-25T18:45:56.616Z,1008.39
2018-01-25T18:47:05.596Z,1008.39
2018-01-25T18:48:14.548Z,1008.36
2018-01-25T18:49:23.504Z,1008.41
2018-01-25T18:50:32.242Z,1008.39
2018-01-25T18:51:40.966Z,1008.42
2018-01-25T18:52:49.660Z,1008.41
2018-01-25T18:53:58.354Z,1008.38
2018-01-25T18:55:07.321Z,1008.43
2018-01-25T18:56:16.305Z,1008.43
2018-01-25T18:57:25.518Z,1008.42
2018-01-25T18:58:34.457Z,1008.41
2018-01-25T18:59:43.156Z,1008.43
2018-01-25T19:00:52.123Z,1008.43
2018-01-25T19:02:01.592Z,1008.47
2018-01-25T19:03:11.325Z,1008.46
2018-01-25T19:04:20.798Z,1008.45
2018-01-25T19:05:30.523Z,1008.42
2018-01-25T19:06:39.195Z,1008.46
2018-01-25T19:07:48.407Z,1008.43
2018-01-25T19:08:57.621Z,1008.42
2018-01-25T19:10:06.571Z,1008.39
2018-01-25T19:11:16.036Z,1008.42
2018-01-25T19:12:24.987Z,1008.41
2018-01-25T19:13:34.198Z,1008.48
2018-01-25T19:14:42.882Z,1008.49
2018-01-25T19:15:52.086Z,1008.45
2018-01-25T19:17:00.797Z,1008.51
2018-01-25T19:18:09.729Z,1008.51
2018-01-25T19:19:19.217Z,1008.51
2018-01-25T19:20:28.426Z,1008.52
2018-01-25T19:21:37.628Z,1008.53
2018-01-25T19:22:46.399Z,1008.5
2018-01-25T19:23:55.652Z,1008.48
2018-01-25T19:25:05.135Z,1008.5
2018-01-25T19:26:14.332Z,1008.51
2018-01-25T19:27:23.545Z,1008.53
2018-01-25T19:28:32.491Z,1008.57
2018-01-25T19:29:41.181Z,1008.59
2018-01-25T19:30:49.871Z,1008.6
2018-01-25T19:31:58.807Z,1008.63
2018-01-25T19:33:07.508Z,1008.59
2018-01-25T19:34:16.466Z,1008.56
2018-01-25T19:35:25.406Z,1008.54
2018-01-25T19:36:34.092Z,1008.59
2018-01-25T19:37:43.041Z,1008.58
2018-01-25T19:38:51.722Z,1008.55
2018-01-25T19:40:00.486Z,1008.51
2018-01-25T19:41:09.163Z,1008.55
2018-01-25T19:42:18.088Z,1008.52
2018-01-25T19:43:27.046Z,1008.44
2018-01-25T19:44:35.735Z,1008.42
2018-01-25T19:45:44.694Z,1008.43
2018-01-25T19:46:53.900Z,1008.4
2018-01-25T19:48:02.841Z,1008.39
2018-01-25T19:49:12.318Z,1008.36
2018-01-25T19:50:21.011Z,1008.34
2018-01-25T19:51:29.688Z,1008.33
2018-01-25T19:52:38.412Z,1008.28
2018-01-25T19:53:47.340Z,1008.31
2018-01-25T19:54:56.290Z,1008.27
2018-01-25T19:56:05.502Z,1008.26
2018-01-25T19:57:14.705Z,1008.27
2018-01-25T19:58:23.655Z,1008.28
2018-01-25T19:59:32.872Z,1008.31
2018-01-25T20:00:41.840Z,1008.31
2018-01-25T20:01:51.060Z,1008.31
2018-01-25T20:03:00.013Z,1008.27
2018-01-25T20:04:09.225Z,1008.26
2018-01-25T20:05:18.462Z,1008.25
2018-01-25T20:06:27.723Z,1008.31
2018-01-25T20:07:36.388Z,1008.3
2018-01-25T20:08:45.357Z,1008.3
2018-01-25T20:09:54.324Z,1008.32
2018-01-25T20:11:03.287Z,1008.29
2018-01-25T20:12:12.496Z,1008.26
2018-01-25T20:13:21.468Z,1008.32
2018-01-25T20:14:30.680Z,1008.35
2018-01-25T20:15:39.369Z,1008.35
2018-01-25T20:16:48.578Z,1008.33
2018-01-25T20:17:57.545Z,1008.31
2018-01-25T20:19:06.239Z,1008.35
2018-01-25T20:20:15.204Z,1008.37
2018-01-25T20:21:24.173Z,1008.41
2018-01-25T20:22:33.385Z,1008.41
2018-01-25T20:23:42.087Z,1008.42
2018-01-25T20:24:50.785Z,1008.43
2018-01-25T20:25:59.735Z,1008.44
2018-01-25T20:27:08.677Z,1008.38
2018-01-25T20:28:17.346Z,1008.45
2018-01-25T20:29:26.297Z,1008.39
2018-01-25T20:30:35.493Z,1008.39
2018-01-25T20:31:44.432Z,1008.39
2018-01-25T20:32:53.638Z,1008.42
2018-01-25T20:34:02.617Z,1008.41
2018-01-25T20:35:11.565Z,1008.4
2018-01-25T20:36:20.534Z,1008.38
2018-01-25T20:37:29.769Z,1008.33
2018-01-25T20:38:38.708Z,1008.37
2018-01-25T20:39:47.932Z,1008.36
2018-01-25T20:40:57.156Z,1008.37
2018-01-25T20:42:05.866Z,1008.42
2018-01-25T20:43:14.550Z,1008.4
2018-01-25T20:44:23.745Z,1008.41